sensor_id;sensor_type;location;lat;lon;timestamp;temperature;humidity
27671;DHT22;15077;49.704;9.908;2023-05-19T00:01:42;13.70;50.80
27671;DHT22;15077;49.704;9.908;2023-05-19T00:04:10;13.70;50.80
27671;DHT22;15077;49.704;9.908;2023-05-19T00:06:40;13.60;50.80
27671;DHT22;15077;49.704;9.908;2023-05-19T00:09:10;13.60;50.90
27671;DHT22;15077;49.704;9.908;2023-05-19T00:11:38;13.60;50.80
27671;DHT22;15077;49.704;9.908;2023-05-19T00:14:06;13.50;50.90
27671;DHT22;15077;49.704;9.908;2023-05-19T00:16:35;13.50;50.90
27671;DHT22;15077;49.704;9.908;2023-05-19T00:19:04;13.50;51.00
27671;DHT22;15077;49.704;9.908;2023-05-19T00:21:32;13.40;50.90
27671;DHT22;15077;49.704;9.908;2023-05-19T00:23:58;13.40;50.90
27671;DHT22;15077;49.704;9.908;2023-05-19T00:26:25;13.40;51.00
27671;DHT22;15077;49.704;9.908;2023-05-19T00:28:52;13.30;51.00
27671;DHT22;15077;49.704;9.908;2023-05-19T00:31:19;13.30;51.00
27671;DHT22;15077;49.704;9.908;2023-05-19T00:33:46;13.30;51.20
27671;DHT22;15077;49.704;9.908;2023-05-19T00:36:12;13.30;51.10
27671;DHT22;15077;49.704;9.908;2023-05-19T00:38:38;13.30;51.20
27671;DHT22;15077;49.704;9.908;2023-05-19T00:41:05;13.20;51.20
27671;DHT22;15077;49.704;9.908;2023-05-19T00:43:32;13.20;51.30
27671;DHT22;15077;49.704;9.908;2023-05-19T00:46:01;13.20;51.10
27671;DHT22;15077;49.704;9.908;2023-05-19T00:48:27;13.20;51.10
27671;DHT22;15077;49.704;9.908;2023-05-19T00:50:55;13.20;51.30
27671;DHT22;15077;49.704;9.908;2023-05-19T00:53:31;13.10;51.20
27671;DHT22;15077;49.704;9.908;2023-05-19T00:56:01;13.10;51.30
27671;DHT22;15077;49.704;9.908;2023-05-19T00:58:34;13.10;51.30
27671;DHT22;15077;49.704;9.908;2023-05-19T01:01:02;13.00;51.20
27671;DHT22;15077;49.704;9.908;2023-05-19T01:03:32;13.00;51.20
27671;DHT22;15077;49.704;9.908;2023-05-19T01:06:01;13.00;51.40
27671;DHT22;15077;49.704;9.908;2023-05-19T01:08:32;12.90;51.30
27671;DHT22;15077;49.704;9.908;2023-05-19T01:10:59;12.90;51.20
27671;DHT22;15077;49.704;9.908;2023-05-19T01:13:28;12.90;51.20
27671;DHT22;15077;49.704;9.908;2023-05-19T01:19:00;12.80;51.60
27671;DHT22;15077;49.704;9.908;2023-05-19T01:31:22;12.70;51.80
27671;DHT22;15077;49.704;9.908;2023-05-19T01:33:51;12.70;51.80
27671;DHT22;15077;49.704;9.908;2023-05-19T01:36:21;12.60;51.90
27671;DHT22;15077;49.704;9.908;2023-05-19T01:38:53;12.60;52.00
27671;DHT22;15077;49.704;9.908;2023-05-19T01:41:22;12.60;52.10
27671;DHT22;15077;49.704;9.908;2023-05-19T01:43:52;12.50;52.00
27671;DHT22;15077;49.704;9.908;2023-05-19T01:46:20;12.50;52.00
27671;DHT22;15077;49.704;9.908;2023-05-19T01:48:48;12.50;52.20
27671;DHT22;15077;49.704;9.908;2023-05-19T01:51:14;12.50;52.10
27671;DHT22;15077;49.704;9.908;2023-05-19T01:53:40;12.40;52.20
27671;DHT22;15077;49.704;9.908;2023-05-19T01:56:06;12.40;52.20
27671;DHT22;15077;49.704;9.908;2023-05-19T01:58:46;12.40;52.20
27671;DHT22;15077;49.704;9.908;2023-05-19T02:01:53;12.40;52.50
27671;DHT22;15077;49.704;9.908;2023-05-19T02:04:44;12.40;52.40
27671;DHT22;15077;49.704;9.908;2023-05-19T02:07:34;12.40;52.50
27671;DHT22;15077;49.704;9.908;2023-05-19T02:10:14;12.30;52.50
27671;DHT22;15077;49.704;9.908;2023-05-19T02:12:49;12.30;52.50
27671;DHT22;15077;49.704;9.908;2023-05-19T02:15:25;12.30;52.50
27671;DHT22;15077;49.704;9.908;2023-05-19T02:18:01;12.30;52.60
27671;DHT22;15077;49.704;9.908;2023-05-19T02:20:29;12.20;52.50
27671;DHT22;15077;49.704;9.908;2023-05-19T02:22:56;12.20;52.60
27671;DHT22;15077;49.704;9.908;2023-05-19T02:25:24;12.20;52.60
27671;DHT22;15077;49.704;9.908;2023-05-19T02:27:53;12.20;52.70
27671;DHT22;15077;49.704;9.908;2023-05-19T02:30:21;12.20;52.70
27671;DHT22;15077;49.704;9.908;2023-05-19T02:32:49;12.20;52.80
27671;DHT22;15077;49.704;9.908;2023-05-19T02:35:19;12.20;52.80
27671;DHT22;15077;49.704;9.908;2023-05-19T02:37:46;12.10;52.70
27671;DHT22;15077;49.704;9.908;2023-05-19T02:40:17;12.10;52.80
27671;DHT22;15077;49.704;9.908;2023-05-19T02:42:45;12.10;52.90
27671;DHT22;15077;49.704;9.908;2023-05-19T02:45:12;12.10;52.90
27671;DHT22;15077;49.704;9.908;2023-05-19T02:47:38;12.10;52.90
27671;DHT22;15077;49.704;9.908;2023-05-19T02:50:07;12.10;52.90
27671;DHT22;15077;49.704;9.908;2023-05-19T02:52:33;12.10;53.00
27671;DHT22;15077;49.704;9.908;2023-05-19T02:54:59;12.10;53.10
27671;DHT22;15077;49.704;9.908;2023-05-19T02:57:25;12.10;53.10
27671;DHT22;15077;49.704;9.908;2023-05-19T02:59:55;12.00;53.10
27671;DHT22;15077;49.704;9.908;2023-05-19T03:02:22;12.00;53.30
27671;DHT22;15077;49.704;9.908;2023-05-19T03:04:49;12.00;53.30
27671;DHT22;15077;49.704;9.908;2023-05-19T03:07:14;12.00;53.30
27671;DHT22;15077;49.704;9.908;2023-05-19T03:09:40;12.00;53.40
27671;DHT22;15077;49.704;9.908;2023-05-19T03:12:06;12.00;52.90
27671;DHT22;15077;49.704;9.908;2023-05-19T03:14:34;11.90;53.40
27671;DHT22;15077;49.704;9.908;2023-05-19T03:17:04;11.90;53.60
27671;DHT22;15077;49.704;9.908;2023-05-19T03:19:32;11.90;54.10
27671;DHT22;15077;49.704;9.908;2023-05-19T03:21:59;11.90;53.60
27671;DHT22;15077;49.704;9.908;2023-05-19T03:24:25;11.90;53.80
27671;DHT22;15077;49.704;9.908;2023-05-19T03:26:51;11.90;53.70
27671;DHT22;15077;49.704;9.908;2023-05-19T03:29:17;11.90;53.80
27671;DHT22;15077;49.704;9.908;2023-05-19T03:31:42;11.90;53.80
27671;DHT22;15077;49.704;9.908;2023-05-19T03:34:09;11.90;53.80
27671;DHT22;15077;49.704;9.908;2023-05-19T03:36:37;11.90;53.80
27671;DHT22;15077;49.704;9.908;2023-05-19T03:39:05;11.90;54.00
27671;DHT22;15077;49.704;9.908;2023-05-19T03:41:31;11.90;54.00
27671;DHT22;15077;49.704;9.908;2023-05-19T03:43:58;11.90;54.00
27671;DHT22;15077;49.704;9.908;2023-05-19T03:46:25;11.90;54.00
27671;DHT22;15077;49.704;9.908;2023-05-19T03:48:50;11.90;54.00
27671;DHT22;15077;49.704;9.908;2023-05-19T03:51:16;11.90;54.10
27671;DHT22;15077;49.704;9.908;2023-05-19T03:53:42;11.90;54.10
27671;DHT22;15077;49.704;9.908;2023-05-19T03:56:10;11.90;54.20
27671;DHT22;15077;49.704;9.908;2023-05-19T03:58:39;11.90;54.20
27671;DHT22;15077;49.704;9.908;2023-05-19T04:01:09;11.90;54.30
27671;DHT22;15077;49.704;9.908;2023-05-19T04:03:35;11.90;54.30
27671;DHT22;15077;49.704;9.908;2023-05-19T04:06:01;11.90;54.40
27671;DHT22;15077;49.704;9.908;2023-05-19T04:08:27;11.90;54.40
27671;DHT22;15077;49.704;9.908;2023-05-19T04:10:53;11.90;54.40
27671;DHT22;15077;49.704;9.908;2023-05-19T04:13:20;11.90;54.50
27671;DHT22;15077;49.704;9.908;2023-05-19T04:15:46;11.90;54.50
27671;DHT22;15077;49.704;9.908;2023-05-19T04:18:11;12.00;54.60
27671;DHT22;15077;49.704;9.908;2023-05-19T04:20:37;12.00;54.70
27671;DHT22;15077;49.704;9.908;2023-05-19T04:23:03;12.00;54.70
27671;DHT22;15077;49.704;9.908;2023-05-19T04:25:29;12.00;54.80
27671;DHT22;15077;49.704;9.908;2023-05-19T04:27:54;12.00;54.80
27671;DHT22;15077;49.704;9.908;2023-05-19T04:30:23;12.00;54.80
27671;DHT22;15077;49.704;9.908;2023-05-19T04:32:49;12.00;55.00
27671;DHT22;15077;49.704;9.908;2023-05-19T04:35:15;12.00;54.90
27671;DHT22;15077;49.704;9.908;2023-05-19T04:37:43;12.00;54.90
27671;DHT22;15077;49.704;9.908;2023-05-19T04:40:13;12.00;54.90
27671;DHT22;15077;49.704;9.908;2023-05-19T04:42:39;12.10;55.00
27671;DHT22;15077;49.704;9.908;2023-05-19T04:45:08;12.10;55.10
27671;DHT22;15077;49.704;9.908;2023-05-19T04:47:34;12.10;55.00
27671;DHT22;15077;49.704;9.908;2023-05-19T04:50:04;12.20;55.10
27671;DHT22;15077;49.704;9.908;2023-05-19T04:52:30;12.20;55.10
27671;DHT22;15077;49.704;9.908;2023-05-19T04:54:55;12.20;55.20
27671;DHT22;15077;49.704;9.908;2023-05-19T04:57:21;12.20;55.30
27671;DHT22;15077;49.704;9.908;2023-05-19T04:59:47;12.20;55.30
27671;DHT22;15077;49.704;9.908;2023-05-19T05:02:14;12.30;55.20
27671;DHT22;15077;49.704;9.908;2023-05-19T05:04:40;12.30;55.30
27671;DHT22;15077;49.704;9.908;2023-05-19T05:07:08;12.30;55.30
27671;DHT22;15077;49.704;9.908;2023-05-19T05:09:35;12.40;55.40
27671;DHT22;15077;49.704;9.908;2023-05-19T05:12:01;12.40;55.40
27671;DHT22;15077;49.704;9.908;2023-05-19T05:14:28;12.40;55.50
27671;DHT22;15077;49.704;9.908;2023-05-19T05:16:54;12.40;55.60
27671;DHT22;15077;49.704;9.908;2023-05-19T05:19:21;12.50;55.60
27671;DHT22;15077;49.704;9.908;2023-05-19T05:21:47;12.50;55.70
27671;DHT22;15077;49.704;9.908;2023-05-19T05:24:13;12.60;55.70
27671;DHT22;15077;49.704;9.908;2023-05-19T05:26:40;12.60;55.80
27671;DHT22;15077;49.704;9.908;2023-05-19T05:29:07;12.60;55.90
27671;DHT22;15077;49.704;9.908;2023-05-19T05:31:34;12.70;55.90
27671;DHT22;15077;49.704;9.908;2023-05-19T05:34:01;12.80;55.90
27671;DHT22;15077;49.704;9.908;2023-05-19T05:36:27;12.80;56.00
27671;DHT22;15077;49.704;9.908;2023-05-19T05:38:52;12.80;56.00
27671;DHT22;15077;49.704;9.908;2023-05-19T05:41:18;12.90;56.10
27671;DHT22;15077;49.704;9.908;2023-05-19T05:43:44;12.90;56.20
27671;DHT22;15077;49.704;9.908;2023-05-19T05:46:10;13.00;56.30
27671;DHT22;15077;49.704;9.908;2023-05-19T05:48:36;13.00;56.50
27671;DHT22;15077;49.704;9.908;2023-05-19T05:51:02;13.00;56.50
27671;DHT22;15077;49.704;9.908;2023-05-19T05:53:29;13.10;56.50
27671;DHT22;15077;49.704;9.908;2023-05-19T05:55:59;13.10;56.50
27671;DHT22;15077;49.704;9.908;2023-05-19T05:58:25;13.20;56.60
27671;DHT22;15077;49.704;9.908;2023-05-19T06:00:50;13.20;56.60
27671;DHT22;15077;49.704;9.908;2023-05-19T06:03:17;13.30;56.70
27671;DHT22;15077;49.704;9.908;2023-05-19T06:05:46;13.30;56.80
27671;DHT22;15077;49.704;9.908;2023-05-19T06:08:11;13.30;56.80
27671;DHT22;15077;49.704;9.908;2023-05-19T06:10:37;13.40;57.00
27671;DHT22;15077;49.704;9.908;2023-05-19T06:13:05;13.40;57.10
27671;DHT22;15077;49.704;9.908;2023-05-19T06:15:31;13.50;57.20
27671;DHT22;15077;49.704;9.908;2023-05-19T06:17:57;13.50;57.20
27671;DHT22;15077;49.704;9.908;2023-05-19T06:20:23;13.60;57.10
27671;DHT22;15077;49.704;9.908;2023-05-19T06:22:48;13.60;57.30
27671;DHT22;15077;49.704;9.908;2023-05-19T06:25:14;13.70;57.40
27671;DHT22;15077;49.704;9.908;2023-05-19T06:27:41;13.80;57.40
27671;DHT22;15077;49.704;9.908;2023-05-19T06:30:07;13.80;57.30
27671;DHT22;15077;49.704;9.908;2023-05-19T06:32:33;13.90;57.90
27671;DHT22;15077;49.704;9.908;2023-05-19T06:34:59;14.00;58.00
27671;DHT22;15077;49.704;9.908;2023-05-19T06:37:24;14.10;58.30
27671;DHT22;15077;49.704;9.908;2023-05-19T06:39:51;14.20;58.20
27671;DHT22;15077;49.704;9.908;2023-05-19T06:42:21;14.20;57.90
27671;DHT22;15077;49.704;9.908;2023-05-19T06:44:49;14.30;58.20
27671;DHT22;15077;49.704;9.908;2023-05-19T06:47:15;14.40;58.40
27671;DHT22;15077;49.704;9.908;2023-05-19T06:49:43;14.50;58.40
27671;DHT22;15077;49.704;9.908;2023-05-19T06:52:09;14.60;58.10
27671;DHT22;15077;49.704;9.908;2023-05-19T06:54:36;14.70;58.20
27671;DHT22;15077;49.704;9.908;2023-05-19T06:57:02;14.80;58.30
27671;DHT22;15077;49.704;9.908;2023-05-19T06:59:28;14.90;57.70
27671;DHT22;15077;49.704;9.908;2023-05-19T07:01:54;14.90;57.60
27671;DHT22;15077;49.704;9.908;2023-05-19T07:04:20;15.00;57.70
27671;DHT22;15077;49.704;9.908;2023-05-19T07:06:46;15.00;57.90
27671;DHT22;15077;49.704;9.908;2023-05-19T07:09:12;15.10;57.50
27671;DHT22;15077;49.704;9.908;2023-05-19T07:11:38;15.20;57.60
27671;DHT22;15077;49.704;9.908;2023-05-19T07:14:03;15.20;57.70
27671;DHT22;15077;49.704;9.908;2023-05-19T07:16:29;15.30;58.10
27671;DHT22;15077;49.704;9.908;2023-05-19T07:18:55;15.30;57.50
27671;DHT22;15077;49.704;9.908;2023-05-19T07:21:21;15.40;57.30
27671;DHT22;15077;49.704;9.908;2023-05-19T07:23:46;15.40;57.10
27671;DHT22;15077;49.704;9.908;2023-05-19T07:26:12;15.50;56.80
27671;DHT22;15077;49.704;9.908;2023-05-19T07:28:38;15.50;56.70
27671;DHT22;15077;49.704;9.908;2023-05-19T07:31:04;15.60;56.90
27671;DHT22;15077;49.704;9.908;2023-05-19T07:33:29;15.60;57.10
27671;DHT22;15077;49.704;9.908;2023-05-19T07:35:55;15.70;56.60
27671;DHT22;15077;49.704;9.908;2023-05-19T07:38:21;15.80;57.00
27671;DHT22;15077;49.704;9.908;2023-05-19T07:40:46;15.80;56.60
27671;DHT22;15077;49.704;9.908;2023-05-19T07:43:12;15.90;56.50
27671;DHT22;15077;49.704;9.908;2023-05-19T07:45:38;15.90;56.60
27671;DHT22;15077;49.704;9.908;2023-05-19T07:48:04;16.00;56.70
27671;DHT22;15077;49.704;9.908;2023-05-19T07:50:30;16.10;56.50
27671;DHT22;15077;49.704;9.908;2023-05-19T07:52:56;16.10;56.70
27671;DHT22;15077;49.704;9.908;2023-05-19T07:55:22;16.20;56.50
27671;DHT22;15077;49.704;9.908;2023-05-19T07:57:49;16.20;56.90
27671;DHT22;15077;49.704;9.908;2023-05-19T08:00:15;16.30;56.50
27671;DHT22;15077;49.704;9.908;2023-05-19T08:02:42;16.30;57.40
27671;DHT22;15077;49.704;9.908;2023-05-19T08:05:08;16.40;57.20
27671;DHT22;15077;49.704;9.908;2023-05-19T08:07:35;16.50;56.70
27671;DHT22;15077;49.704;9.908;2023-05-19T08:10:01;16.50;56.50
27671;DHT22;15077;49.704;9.908;2023-05-19T08:12:27;16.60;56.20
27671;DHT22;15077;49.704;9.908;2023-05-19T08:14:53;16.70;56.20
27671;DHT22;15077;49.704;9.908;2023-05-19T08:17:19;16.80;56.40
27671;DHT22;15077;49.704;9.908;2023-05-19T08:19:45;16.90;55.90
27671;DHT22;15077;49.704;9.908;2023-05-19T08:22:10;16.90;55.90
27671;DHT22;15077;49.704;9.908;2023-05-19T08:24:36;17.00;55.60
27671;DHT22;15077;49.704;9.908;2023-05-19T08:27:03;17.00;55.90
27671;DHT22;15077;49.704;9.908;2023-05-19T08:29:29;17.10;55.40
27671;DHT22;15077;49.704;9.908;2023-05-19T08:31:55;17.10;55.70
27671;DHT22;15077;49.704;9.908;2023-05-19T08:34:22;17.20;55.50
27671;DHT22;15077;49.704;9.908;2023-05-19T08:36:48;17.20;55.60
27671;DHT22;15077;49.704;9.908;2023-05-19T08:39:14;17.30;55.30
27671;DHT22;15077;49.704;9.908;2023-05-19T08:41:42;17.40;55.60
27671;DHT22;15077;49.704;9.908;2023-05-19T08:44:08;17.50;55.30
27671;DHT22;15077;49.704;9.908;2023-05-19T08:46:34;17.50;55.40
27671;DHT22;15077;49.704;9.908;2023-05-19T08:49:11;17.60;55.40
27671;DHT22;15077;49.704;9.908;2023-05-19T08:54:15;17.70;54.30
27671;DHT22;15077;49.704;9.908;2023-05-19T08:56:43;17.80;54.40
27671;DHT22;15077;49.704;9.908;2023-05-19T08:59:13;17.80;54.60
27671;DHT22;15077;49.704;9.908;2023-05-19T09:01:43;17.90;54.10
27671;DHT22;15077;49.704;9.908;2023-05-19T09:04:10;18.00;53.90
27671;DHT22;15077;49.704;9.908;2023-05-19T09:06:37;18.00;54.00
27671;DHT22;15077;49.704;9.908;2023-05-19T09:09:05;18.10;54.60
27671;DHT22;15077;49.704;9.908;2023-05-19T09:11:33;18.20;54.00
27671;DHT22;15077;49.704;9.908;2023-05-19T09:14:02;18.20;54.50
27671;DHT22;15077;49.704;9.908;2023-05-19T09:16:29;18.20;54.20
27671;DHT22;15077;49.704;9.908;2023-05-19T09:18:58;18.30;54.10
27671;DHT22;15077;49.704;9.908;2023-05-19T09:21:29;18.40;54.30
27671;DHT22;15077;49.704;9.908;2023-05-19T09:23:56;18.40;53.60
27671;DHT22;15077;49.704;9.908;2023-05-19T09:26:23;18.50;53.20
27671;DHT22;15077;49.704;9.908;2023-05-19T09:28:49;18.50;53.60
27671;DHT22;15077;49.704;9.908;2023-05-19T09:31:15;18.50;53.60
27671;DHT22;15077;49.704;9.908;2023-05-19T09:33:42;18.50;53.80
27671;DHT22;15077;49.704;9.908;2023-05-19T09:36:08;18.60;53.60
27671;DHT22;15077;49.704;9.908;2023-05-19T09:38:35;18.70;53.40
27671;DHT22;15077;49.704;9.908;2023-05-19T09:41:03;18.70;54.80
27671;DHT22;15077;49.704;9.908;2023-05-19T09:43:31;18.80;53.90
27671;DHT22;15077;49.704;9.908;2023-05-19T09:46:08;18.80;52.80
27671;DHT22;15077;49.704;9.908;2023-05-19T09:48:36;18.90;52.50
27671;DHT22;15077;49.704;9.908;2023-05-19T09:51:07;18.90;52.30
27671;DHT22;15077;49.704;9.908;2023-05-19T09:53:34;18.90;52.30
27671;DHT22;15077;49.704;9.908;2023-05-19T09:56:01;18.90;52.80
27671;DHT22;15077;49.704;9.908;2023-05-19T09:58:34;18.90;52.60
27671;DHT22;15077;49.704;9.908;2023-05-19T10:01:00;18.90;53.50
27671;DHT22;15077;49.704;9.908;2023-05-19T10:03:27;18.90;52.30
27671;DHT22;15077;49.704;9.908;2023-05-19T10:05:54;19.00;52.30
27671;DHT22;15077;49.704;9.908;2023-05-19T10:08:21;19.00;52.30
27671;DHT22;15077;49.704;9.908;2023-05-19T10:10:48;19.00;53.00
27671;DHT22;15077;49.704;9.908;2023-05-19T10:13:15;19.00;52.40
27671;DHT22;15077;49.704;9.908;2023-05-19T10:15:41;19.00;52.80
27671;DHT22;15077;49.704;9.908;2023-05-19T10:18:11;19.00;52.30
27671;DHT22;15077;49.704;9.908;2023-05-19T10:20:40;19.10;52.30
27671;DHT22;15077;49.704;9.908;2023-05-19T10:23:06;19.10;52.00
27671;DHT22;15077;49.704;9.908;2023-05-19T10:25:34;19.10;52.40
27671;DHT22;15077;49.704;9.908;2023-05-19T10:28:10;19.00;52.60
27671;DHT22;15077;49.704;9.908;2023-05-19T10:30:44;19.00;52.30
27671;DHT22;15077;49.704;9.908;2023-05-19T10:33:15;19.00;52.00
27671;DHT22;15077;49.704;9.908;2023-05-19T10:39:10;19.00;52.10
27671;DHT22;15077;49.704;9.908;2023-05-19T10:44:39;18.80;52.30
27671;DHT22;15077;49.704;9.908;2023-05-19T10:47:28;18.80;52.30
27671;DHT22;15077;49.704;9.908;2023-05-19T10:49:54;18.80;52.80
27671;DHT22;15077;49.704;9.908;2023-05-19T10:52:23;18.80;52.90
27671;DHT22;15077;49.704;9.908;2023-05-19T10:54:54;18.80;53.10
27671;DHT22;15077;49.704;9.908;2023-05-19T10:57:26;18.90;53.60
27671;DHT22;15077;49.704;9.908;2023-05-19T10:59:55;19.00;53.80
27671;DHT22;15077;49.704;9.908;2023-05-19T11:02:43;19.00;53.30
27671;DHT22;15077;49.704;9.908;2023-05-19T11:05:14;19.10;53.10
27671;DHT22;15077;49.704;9.908;2023-05-19T11:07:57;19.10;52.90
27671;DHT22;15077;49.704;9.908;2023-05-19T11:10:30;19.20;53.00
27671;DHT22;15077;49.704;9.908;2023-05-19T11:12:57;19.20;53.10
27671;DHT22;15077;49.704;9.908;2023-05-19T11:15:26;19.20;53.10
27671;DHT22;15077;49.704;9.908;2023-05-19T11:17:53;19.20;53.10
27671;DHT22;15077;49.704;9.908;2023-05-19T11:23:07;19.20;52.60
27671;DHT22;15077;49.704;9.908;2023-05-19T11:25:42;19.20;52.30
27671;DHT22;15077;49.704;9.908;2023-05-19T11:28:10;19.20;52.70
27671;DHT22;15077;49.704;9.908;2023-05-19T11:30:43;19.10;52.70
27671;DHT22;15077;49.704;9.908;2023-05-19T11:33:11;19.10;53.00
27671;DHT22;15077;49.704;9.908;2023-05-19T11:35:38;19.10;53.00
27671;DHT22;15077;49.704;9.908;2023-05-19T11:38:05;19.10;52.40
27671;DHT22;15077;49.704;9.908;2023-05-19T11:40:32;19.10;52.10
27671;DHT22;15077;49.704;9.908;2023-05-19T11:42:58;19.10;52.10
27671;DHT22;15077;49.704;9.908;2023-05-19T11:45:26;19.10;52.30
27671;DHT22;15077;49.704;9.908;2023-05-19T11:47:58;19.10;52.20
27671;DHT22;15077;49.704;9.908;2023-05-19T11:50:24;19.10;52.10
27671;DHT22;15077;49.704;9.908;2023-05-19T11:52:51;19.10;52.10
27671;DHT22;15077;49.704;9.908;2023-05-19T11:55:18;19.10;52.30
27671;DHT22;15077;49.704;9.908;2023-05-19T12:00:27;19.20;52.30
27671;DHT22;15077;49.704;9.908;2023-05-19T12:02:58;19.20;52.50
27671;DHT22;15077;49.704;9.908;2023-05-19T12:05:25;19.20;52.90
27671;DHT22;15077;49.704;9.908;2023-05-19T12:07:53;19.20;53.00
27671;DHT22;15077;49.704;9.908;2023-05-19T12:10:30;19.30;52.70
27671;DHT22;15077;49.704;9.908;2023-05-19T12:12:56;19.40;52.70
27671;DHT22;15077;49.704;9.908;2023-05-19T12:15:23;19.40;52.90
27671;DHT22;15077;49.704;9.908;2023-05-19T12:17:57;19.50;52.90
27671;DHT22;15077;49.704;9.908;2023-05-19T12:20:25;19.60;52.80
27671;DHT22;15077;49.704;9.908;2023-05-19T12:22:53;19.70;52.30
27671;DHT22;15077;49.704;9.908;2023-05-19T12:25:20;19.70;52.50
27671;DHT22;15077;49.704;9.908;2023-05-19T12:27:46;19.90;52.60
27671;DHT22;15077;49.704;9.908;2023-05-19T12:30:15;19.90;51.80
27671;DHT22;15077;49.704;9.908;2023-05-19T12:32:41;20.00;51.30
27671;DHT22;15077;49.704;9.908;2023-05-19T12:35:08;20.00;52.20
27671;DHT22;15077;49.704;9.908;2023-05-19T12:37:39;20.10;53.60
27671;DHT22;15077;49.704;9.908;2023-05-19T12:40:07;20.20;52.70
27671;DHT22;15077;49.704;9.908;2023-05-19T12:42:33;20.30;51.90
27671;DHT22;15077;49.704;9.908;2023-05-19T12:45:02;20.40;52.20
27671;DHT22;15077;49.704;9.908;2023-05-19T12:47:35;20.50;51.40
27671;DHT22;15077;49.704;9.908;2023-05-19T12:50:08;20.60;51.20
27671;DHT22;15077;49.704;9.908;2023-05-19T12:52:41;20.70;51.20
27671;DHT22;15077;49.704;9.908;2023-05-19T12:55:09;20.70;49.90
27671;DHT22;15077;49.704;9.908;2023-05-19T12:57:37;20.80;49.90
27671;DHT22;15077;49.704;9.908;2023-05-19T13:00:12;20.80;50.50
27671;DHT22;15077;49.704;9.908;2023-05-19T13:03:06;20.90;50.70
27671;DHT22;15077;49.704;9.908;2023-05-19T13:05:37;21.00;50.20
27671;DHT22;15077;49.704;9.908;2023-05-19T13:10:32;21.20;49.00
27671;DHT22;15077;49.704;9.908;2023-05-19T13:13:00;21.30;49.20
27671;DHT22;15077;49.704;9.908;2023-05-19T13:15:29;21.30;48.50
27671;DHT22;15077;49.704;9.908;2023-05-19T13:17:59;21.30;48.50
27671;DHT22;15077;49.704;9.908;2023-05-19T13:20:26;21.30;48.60
27671;DHT22;15077;49.704;9.908;2023-05-19T13:22:52;21.30;47.30
27671;DHT22;15077;49.704;9.908;2023-05-19T13:25:18;21.40;47.60
27671;DHT22;15077;49.704;9.908;2023-05-19T13:27:44;21.40;47.60
27671;DHT22;15077;49.704;9.908;2023-05-19T13:30:11;21.40;47.60
27671;DHT22;15077;49.704;9.908;2023-05-19T13:32:37;21.40;47.50
27671;DHT22;15077;49.704;9.908;2023-05-19T13:35:03;21.50;47.80
27671;DHT22;15077;49.704;9.908;2023-05-19T13:37:29;21.40;48.00
27671;DHT22;15077;49.704;9.908;2023-05-19T13:39:55;21.50;47.50
27671;DHT22;15077;49.704;9.908;2023-05-19T13:42:22;21.50;47.00
27671;DHT22;15077;49.704;9.908;2023-05-19T13:44:48;21.50;47.10
27671;DHT22;15077;49.704;9.908;2023-05-19T13:47:14;21.50;47.00
27671;DHT22;15077;49.704;9.908;2023-05-19T13:49:40;21.50;46.50
27671;DHT22;15077;49.704;9.908;2023-05-19T13:52:06;21.50;46.40
27671;DHT22;15077;49.704;9.908;2023-05-19T13:54:32;21.50;46.20
27671;DHT22;15077;49.704;9.908;2023-05-19T13:56:59;21.50;46.40
27671;DHT22;15077;49.704;9.908;2023-05-19T13:59:25;21.40;46.90
27671;DHT22;15077;49.704;9.908;2023-05-19T14:01:51;21.40;46.90
27671;DHT22;15077;49.704;9.908;2023-05-19T14:04:17;21.40;46.60
27671;DHT22;15077;49.704;9.908;2023-05-19T14:06:44;21.40;47.00
27671;DHT22;15077;49.704;9.908;2023-05-19T14:09:11;21.40;47.20
27671;DHT22;15077;49.704;9.908;2023-05-19T14:11:37;21.50;47.30
27671;DHT22;15077;49.704;9.908;2023-05-19T14:14:03;21.60;47.70
27671;DHT22;15077;49.704;9.908;2023-05-19T14:16:28;21.60;46.90
27671;DHT22;15077;49.704;9.908;2023-05-19T14:18:55;21.60;46.60
27671;DHT22;15077;49.704;9.908;2023-05-19T14:21:21;21.60;46.80
27671;DHT22;15077;49.704;9.908;2023-05-19T14:23:47;21.60;46.80
27671;DHT22;15077;49.704;9.908;2023-05-19T14:26:13;21.70;46.90
27671;DHT22;15077;49.704;9.908;2023-05-19T14:28:39;21.70;46.20
27671;DHT22;15077;49.704;9.908;2023-05-19T14:31:05;21.80;45.70
27671;DHT22;15077;49.704;9.908;2023-05-19T14:33:31;21.80;45.70
27671;DHT22;15077;49.704;9.908;2023-05-19T14:35:57;21.90;46.30
27671;DHT22;15077;49.704;9.908;2023-05-19T14:38:25;21.90;46.20
27671;DHT22;15077;49.704;9.908;2023-05-19T14:40:51;21.90;46.60
27671;DHT22;15077;49.704;9.908;2023-05-19T14:43:16;22.00;46.80
27671;DHT22;15077;49.704;9.908;2023-05-19T14:45:43;22.10;46.70
27671;DHT22;15077;49.704;9.908;2023-05-19T14:48:09;22.10;45.90
27671;DHT22;15077;49.704;9.908;2023-05-19T14:50:38;22.20;45.40
27671;DHT22;15077;49.704;9.908;2023-05-19T14:53:04;22.30;45.30
27671;DHT22;15077;49.704;9.908;2023-05-19T14:55:30;22.40;45.10
27671;DHT22;15077;49.704;9.908;2023-05-19T14:57:55;22.40;45.20
27671;DHT22;15077;49.704;9.908;2023-05-19T15:00:21;22.50;44.20
27671;DHT22;15077;49.704;9.908;2023-05-19T15:02:47;22.50;44.50
27671;DHT22;15077;49.704;9.908;2023-05-19T15:05:14;22.50;44.10
27671;DHT22;15077;49.704;9.908;2023-05-19T15:07:40;22.50;44.10
27671;DHT22;15077;49.704;9.908;2023-05-19T15:10:08;22.50;44.40
27671;DHT22;15077;49.704;9.908;2023-05-19T15:12:34;22.50;45.10
27671;DHT22;15077;49.704;9.908;2023-05-19T15:15:00;22.60;44.60
27671;DHT22;15077;49.704;9.908;2023-05-19T15:17:25;22.70;44.20
27671;DHT22;15077;49.704;9.908;2023-05-19T15:19:51;22.70;44.50
27671;DHT22;15077;49.704;9.908;2023-05-19T15:22:17;22.70;43.20
27671;DHT22;15077;49.704;9.908;2023-05-19T15:24:43;22.80;43.20
27671;DHT22;15077;49.704;9.908;2023-05-19T15:27:08;22.70;43.10
27671;DHT22;15077;49.704;9.908;2023-05-19T15:29:34;22.70;43.80
27671;DHT22;15077;49.704;9.908;2023-05-19T15:32:00;22.70;44.00
27671;DHT22;15077;49.704;9.908;2023-05-19T15:34:27;22.70;43.80
27671;DHT22;15077;49.704;9.908;2023-05-19T15:36:53;22.70;44.50
27671;DHT22;15077;49.704;9.908;2023-05-19T15:39:19;22.70;44.30
27671;DHT22;15077;49.704;9.908;2023-05-19T15:41:45;22.70;43.90
27671;DHT22;15077;49.704;9.908;2023-05-19T15:44:10;22.80;43.70
27671;DHT22;15077;49.704;9.908;2023-05-19T15:46:36;22.70;42.90
27671;DHT22;15077;49.704;9.908;2023-05-19T15:49:02;22.70;43.40
27671;DHT22;15077;49.704;9.908;2023-05-19T15:51:28;22.70;43.50
27671;DHT22;15077;49.704;9.908;2023-05-19T15:53:54;22.60;43.00
27671;DHT22;15077;49.704;9.908;2023-05-19T15:56:20;22.60;43.60
27671;DHT22;15077;49.704;9.908;2023-05-19T15:58:46;22.60;43.50
27671;DHT22;15077;49.704;9.908;2023-05-19T16:01:13;22.50;43.70
27671;DHT22;15077;49.704;9.908;2023-05-19T16:03:39;22.50;43.90